createdAt,value
2023-01-02T00:01:37.922Z,100837.25
2023-01-02T00:04:08.520Z,100841.97
2023-01-02T00:06:38.711Z,100843.19
2023-01-02T00:09:09.265Z,100845.81
2023-01-02T00:11:38.138Z,100857.56
2023-01-02T00:14:06.966Z,100855.53
2023-01-02T00:16:35.877Z,100851.16
2023-01-02T00:19:07.082Z,100856.50
2023-01-02T00:21:36.012Z,100866.25
2023-01-02T00:24:04.912Z,100863.47
2023-01-02T00:26:36.066Z,100872.84
2023-01-02T00:29:05.196Z,100873.69
2023-01-02T00:31:34.052Z,100879.78
2023-01-02T00:34:02.914Z,100872.78
2023-01-02T00:36:33.527Z,100877.03
2023-01-02T00:39:02.353Z,100880.72
2023-01-02T00:41:31.056Z,100882.72
2023-01-02T00:44:02.727Z,100877.28
2023-01-02T00:46:33.354Z,100881.88
2023-01-02T00:49:02.311Z,100882.88
2023-01-02T00:51:32.523Z,100887.81
2023-01-02T00:54:01.372Z,100892.53
2023-01-02T00:56:30.256Z,100885.78
2023-01-02T00:59:02.328Z,100885.03
2023-01-02T01:01:31.277Z,100898.81
2023-01-02T01:04:01.710Z,100900.34
2023-01-02T01:06:30.576Z,100909.97
2023-01-02T01:09:01.308Z,100914.56
2023-01-02T01:11:30.146Z,100917.25
2023-01-02T01:13:59.301Z,100915.69
2023-01-02T01:16:33.224Z,100914.94
2023-01-02T01:19:02.041Z,100920.75
2023-01-02T01:21:30.860Z,100932.31
2023-01-02T01:24:02.563Z,100927.50
2023-01-02T01:26:31.311Z,100931.94
2023-01-02T01:29:00.152Z,100920.69
2023-01-02T01:31:29.074Z,100924.13
2023-01-02T01:33:57.953Z,100939.94
2023-01-02T01:36:29.168Z,100936.44
2023-01-02T01:38:59.965Z,100928.34
2023-01-02T01:41:30.324Z,100944.97
2023-01-02T01:44:03.528Z,100948.47
2023-01-02T01:46:34.743Z,100970.50
2023-01-02T01:49:10.944Z,100958.25
2023-01-02T01:51:44.708Z,100964.47
2023-01-02T01:54:19.248Z,100973.31
2023-01-02T01:56:57.452Z,100982.19
2023-01-02T01:59:27.044Z,100992.78
2023-01-02T02:01:56.565Z,100992.25
2023-01-02T02:04:26.928Z,100993.81
2023-01-02T02:06:58.783Z,101017.63
2023-01-02T02:09:34.471Z,101015.09
2023-01-02T02:12:06.814Z,101017.69
2023-01-02T02:14:35.821Z,101014.16
2023-01-02T02:17:13.056Z,101022.91
2023-01-02T02:20:17.396Z,101022.91
2023-01-02T02:23:42.334Z,101035.41
2023-01-02T02:26:33.453Z,101028.38
2023-01-02T02:29:37.543Z,101042.50
2023-01-02T02:32:16.989Z,101069.97
2023-01-02T02:34:54.090Z,101061.09
2023-01-02T02:37:31.413Z,101064.81
2023-01-02T02:40:12.548Z,101075.31
2023-01-02T02:42:47.196Z,101083.31
2023-01-02T02:45:26.810Z,101081.47
2023-01-02T02:48:05.105Z,101100.34
2023-01-02T02:50:40.724Z,101102.84
2023-01-02T02:53:16.604Z,101112.63
2023-01-02T02:55:49.216Z,101108.19
2023-01-02T02:58:20.044Z,101113.44
2023-01-02T03:00:48.828Z,101123.97
2023-01-02T03:03:21.160Z,101122.31
2023-01-02T03:06:08.777Z,101122.22
2023-01-02T03:08:43.769Z,101124.94
2023-01-02T03:11:13.344Z,101123.22
2023-01-02T03:13:48.528Z,101125.41
2023-01-02T03:16:28.194Z,101133.09
2023-01-02T03:19:04.900Z,101139.25
2023-01-02T03:21:36.638Z,101142.81
2023-01-02T03:24:09.316Z,101153.09
2023-01-02T03:26:40.985Z,101155.06
2023-01-02T03:29:14.057Z,101154.94
2023-01-02T03:31:45.917Z,101145.34
2023-01-02T03:34:19.453Z,101150.47
2023-01-02T03:36:52.831Z,101151.91
2023-01-02T03:39:25.024Z,101154.88
2023-01-02T03:41:57.998Z,101149.59
2023-01-02T03:44:32.255Z,101149.59
2023-01-02T03:47:10.236Z,101148.28
2023-01-02T03:49:46.234Z,101150.44
2023-01-02T03:52:17.767Z,101153.34
2023-01-02T03:54:48.905Z,101161.53
2023-01-02T03:57:28.694Z,101164.75
2023-01-02T04:00:05.847Z,101163.41
2023-01-02T04:02:51.501Z,101160.38
2023-01-02T04:05:33.307Z,101169.56
2023-01-02T04:08:07.527Z,101170.41
2023-01-02T04:10:40.007Z,101165.16
2023-01-02T04:13:17.668Z,101158.78
2023-01-02T04:15:48.848Z,101165.25
2023-01-02T04:18:22.746Z,101155.06
2023-01-02T04:20:57.835Z,101154.22
2023-01-02T04:23:32.471Z,101140.94
2023-01-02T04:26:09.786Z,101140.31
2023-01-02T04:28:39.215Z,101130.19
2023-01-02T04:31:11.594Z,101128.91
2023-01-02T04:33:46.714Z,101131.19
2023-01-02T04:36:18.245Z,101128.19
2023-01-02T04:38:50.989Z,101140.34
2023-01-02T04:41:27.392Z,101135.56
2023-01-02T04:43:56.409Z,101140.84
2023-01-02T04:46:26.473Z,101144.41
2023-01-02T04:48:56.294Z,101156.56
2023-01-02T04:51:29.447Z,101158.72
2023-01-02T04:53:58.568Z,101164.13
2023-01-02T04:56:27.491Z,101161.78
2023-01-02T04:58:56.507Z,101168.91
2023-01-02T05:01:25.344Z,101176.72
2023-01-02T05:03:54.333Z,101164.97
2023-01-02T05:06:23.126Z,101166.72
2023-01-02T05:08:53.475Z,101172.13
2023-01-02T05:11:22.888Z,101170.75
2023-01-02T05:13:54.229Z,101179.56
2023-01-02T05:16:23.085Z,101177.81
2023-01-02T05:18:51.866Z,101189.66
2023-01-02T05:21:46.474Z,101183.53
2023-01-02T05:24:16.977Z,101186.16
2023-01-02T05:26:45.871Z,101188.59
2023-01-02T05:29:14.627Z,101181.47
2023-01-02T05:31:43.477Z,101188.25
2023-01-02T05:34:15.009Z,101191.72
2023-01-02T05:36:44.152Z,101194.06
2023-01-02T05:39:16.986Z,101193.06
2023-01-02T05:41:45.711Z,101190.66
2023-01-02T05:44:14.632Z,101191.13
2023-01-02T05:46:46.043Z,101185.06
2023-01-02T05:49:15.146Z,101177.59
2023-01-02T05:51:43.883Z,101177.81
2023-01-02T05:54:17.597Z,101170.28
2023-01-02T05:56:46.334Z,101175.22
2023-01-02T05:59:22.121Z,101170.72
2023-01-02T06:01:50.988Z,101164.38
2023-01-02T06:04:20.085Z,101168.91
2023-01-02T06:06:53.886Z,101163.69
2023-01-02T06:09:24.083Z,101161.69
2023-01-02T06:11:52.889Z,101169.53
2023-01-02T06:14:22.470Z,101164.94
2023-01-02T06:16:51.220Z,101173.13
2023-01-02T06:19:19.908Z,101169.69
2023-01-02T06:21:49.061Z,101169.13
2023-01-02T06:24:17.741Z,101177.97
2023-01-02T06:26:47.831Z,101181.97
2023-01-02T06:29:17.004Z,101195.84
2023-01-02T06:31:51.153Z,101192.41
2023-01-02T06:34:20.781Z,101199.47
2023-01-02T06:36:49.510Z,101217.34
2023-01-02T06:39:20.128Z,101223.50
2023-01-02T06:41:51.111Z,101230.34
2023-01-02T06:44:21.397Z,101234.16
2023-01-02T06:46:52.949Z,101241.78
2023-01-02T06:49:22.001Z,101249.72
2023-01-02T06:51:51.069Z,101251.81
2023-01-02T06:54:19.801Z,101252.09
2023-01-02T06:56:49.933Z,101252.66
2023-01-02T06:59:21.562Z,101240.53
2023-01-02T07:01:50.280Z,101241.66
2023-01-02T07:04:19.440Z,101246.50
2023-01-02T07:06:48.090Z,101243.00
2023-01-02T07:09:16.868Z,101235.44
2023-01-02T07:11:54.044Z,101233.53
2023-01-02T07:14:25.815Z,101233.66
2023-01-02T07:16:54.764Z,101241.69
2023-01-02T07:19:23.408Z,101245.19
2023-01-02T07:21:51.890Z,101241.53
2023-01-02T07:24:20.472Z,101251.84
2023-01-02T07:26:50.574Z,101258.34
2023-01-02T07:29:19.463Z,101254.34
2023-01-02T07:31:51.281Z,101254.91
2023-01-02T07:34:20.015Z,101247.81
2023-01-02T07:36:48.783Z,101252.50
2023-01-02T07:39:17.573Z,101260.34
2023-01-02T07:41:49.459Z,101272.09
2023-01-02T07:44:23.125Z,101272.63
2023-01-02T07:46:51.925Z,101262.75
2023-01-02T07:49:20.557Z,101260.00
2023-01-02T07:51:49.319Z,101266.41
2023-01-02T07:54:18.015Z,101257.28
2023-01-02T07:56:46.632Z,101260.06
2023-01-02T07:59:16.851Z,101268.81
2023-01-02T08:01:45.555Z,101275.50
2023-01-02T08:04:14.377Z,101276.38
2023-01-02T08:06:43.154Z,101278.13
2023-01-02T08:09:11.875Z,101285.72
2023-01-02T08:11:40.427Z,101279.88
2023-01-02T08:14:09.249Z,101281.56
2023-01-02T08:16:39.365Z,101283.34
2023-01-02T08:19:08.145Z,101295.00
2023-01-02T08:21:37.107Z,101301.75
2023-01-02T08:24:08.408Z,101290.72
2023-01-02T08:26:36.931Z,101291.22
2023-01-02T08:29:05.726Z,101297.22
2023-01-02T08:31:36.625Z,101299.28
2023-01-02T08:34:15.091Z,101304.63
2023-01-02T08:36:44.072Z,101312.31
2023-01-02T08:39:13.130Z,101305.91
2023-01-02T08:41:42.593Z,101302.66
2023-01-02T08:44:11.384Z,101284.88
2023-01-02T08:46:42.811Z,101299.66
2023-01-02T08:49:13.728Z,101298.59
2023-01-02T08:51:42.408Z,101293.53
2023-01-02T08:54:11.077Z,101293.41
2023-01-02T08:56:39.665Z,101300.88
2023-01-02T08:59:09.948Z,101295.63
2023-01-02T09:01:40.080Z,101276.53
2023-01-02T09:04:12.905Z,101276.63
2023-01-02T09:06:52.622Z,101284.66
2023-01-02T09:09:23.650Z,101289.63
2023-01-02T09:11:53.869Z,101290.06
2023-01-02T09:14:23.595Z,101286.44
2023-01-02T09:16:53.393Z,101292.13
2023-01-02T09:19:22.175Z,101299.03
2023-01-02T09:21:52.521Z,101291.63
2023-01-02T09:24:21.625Z,101303.56
2023-01-02T09:26:52.210Z,101304.53
2023-01-02T09:29:21.355Z,101300.09
2023-01-02T09:31:50.385Z,101290.56
2023-01-02T09:34:19.292Z,101299.25
2023-01-02T09:36:48.992Z,101296.63
2023-01-02T09:39:24.504Z,101282.28
2023-01-02T09:41:59.165Z,101286.41
2023-01-02T09:44:37.738Z,101284.47
2023-01-02T09:47:09.820Z,101272.03
2023-01-02T09:49:45.263Z,101277.75
2023-01-02T09:52:17.440Z,101267.22
2023-01-02T09:54:48.052Z,101260.97
2023-01-02T09:57:34.685Z,101268.44
2023-01-02T10:00:09.860Z,101266.41
2023-01-02T10:03:07.693Z,101272.63
2023-01-02T10:05:57.986Z,101264.94
2023-01-02T10:08:36.927Z,101261.31
2023-01-02T10:11:23.450Z,101260.69
2023-01-02T10:16:51.929Z,101271.78
2023-01-02T10:19:29.707Z,101267.94
2023-01-02T10:22:00.394Z,101264.06
2023-01-02T10:24:41.813Z,101253.31
2023-01-02T10:27:22.763Z,101239.69
2023-01-02T10:30:02.512Z,101241.53
2023-01-02T10:32:33.973Z,101245.25
2023-01-02T10:35:15.125Z,101231.63
2023-01-02T10:37:43.991Z,101229.66
2023-01-02T10:40:13.949Z,101229.84
2023-01-02T10:42:47.127Z,101229.84
2023-01-02T10:45:24.184Z,101234.09
2023-01-02T10:47:53.153Z,101236.41
2023-01-02T10:50:24.752Z,101225.69
2023-01-02T10:52:55.774Z,101220.56
2023-01-02T10:55:38.416Z,101217.78
2023-01-02T10:58:17.048Z,101203.53
2023-01-02T11:00:50.450Z,101194.69
2023-01-02T11:03:23.550Z,101195.16
2023-01-02T11:06:10.303Z,101199.22
2023-01-02T11:08:59.460Z,101189.00
2023-01-02T11:11:32.590Z,101186.53
2023-01-02T11:14:15.408Z,101177.06
2023-01-02T11:16:50.276Z,101171.81
2023-01-02T11:19:29.653Z,101163.31
2023-01-02T11:21:59.271Z,101170.94
2023-01-02T11:24:32.880Z,101158.34
2023-01-02T11:27:04.323Z,101159.06
2023-01-02T11:29:41.005Z,101151.78
2023-01-02T11:32:24.846Z,101151.03
2023-01-02T11:35:03.927Z,101149.72
2023-01-02T11:37:33.005Z,101152.22
2023-01-02T11:40:03.755Z,101154.66
2023-01-02T11:42:59.634Z,101157.47
2023-01-02T11:45:31.817Z,101152.91
2023-01-02T11:48:13.345Z,101149.03
2023-01-02T11:50:48.189Z,101150.06
2023-01-02T11:53:32.334Z,101144.97
2023-01-02T11:56:12.236Z,101149.34
2023-01-02T11:58:50.329Z,101142.03
2023-01-02T12:01:26.556Z,101157.69
2023-01-02T12:03:56.094Z,101148.16
2023-01-02T12:06:34.249Z,101147.69
2023-01-02T12:09:11.551Z,101141.97
2023-01-02T12:12:00.553Z,101124.28
2023-01-02T12:14:55.145Z,101126.75
2023-01-02T12:17:39.415Z,101127.75
2023-01-02T12:20:29.586Z,101121.25
2023-01-02T12:23:15.058Z,101112.66
2023-01-02T12:25:58.306Z,101119.66
2023-01-02T12:28:55.749Z,101113.03
2023-01-02T12:32:00.016Z,101120.25
2023-01-02T12:35:01.642Z,101112.38
2023-01-02T12:37:42.853Z,101102.91
2023-01-02T12:40:36.253Z,101102.84
2023-01-02T12:43:28.173Z,101088.38
2023-01-02T12:46:13.075Z,101094.50
2023-01-02T12:49:00.358Z,101094.91
2023-01-02T12:51:38.933Z,101088.44
2023-01-02T12:54:40.254Z,101084.03
2023-01-02T12:57:23.762Z,101093.25
2023-01-02T13:00:17.154Z,101087.63
2023-01-02T13:03:10.176Z,101089.09
2023-01-02T13:05:45.476Z,101083.13
2023-01-02T13:08:22.301Z,101085.50
2023-01-02T13:10:58.327Z,101059.16
2023-01-02T13:13:33.573Z,101056.03
2023-01-02T13:16:22.600Z,101060.72
2023-01-02T13:19:07.452Z,101042.59
2023-01-02T13:21:51.282Z,101042.06
2023-01-02T13:24:27.678Z,101035.63
2023-01-02T13:26:59.322Z,101033.03
2023-01-02T13:29:30.728Z,101030.84
2023-01-02T13:31:59.627Z,101026.09
2023-01-02T13:34:34.440Z,101008.88
2023-01-02T13:37:07.967Z,100995.97
2023-01-02T13:39:49.605Z,100989.59
2023-01-02T13:42:45.119Z,100983.25
2023-01-02T13:45:18.492Z,100987.59
2023-01-02T13:47:53.908Z,100979.31
2023-01-02T13:50:33.522Z,100963.97
2023-01-02T13:53:11.876Z,100953.81
2023-01-02T13:56:04.521Z,100959.75
2023-01-02T13:58:48.741Z,100947.50
2023-01-02T14:01:51.025Z,100946.06
2023-01-02T14:04:40.475Z,100935.69
2023-01-02T14:07:56.683Z,100940.34
2023-01-02T14:10:43.194Z,100928.81
2023-01-02T14:13:25.299Z,100920.28
2023-01-02T14:16:13.331Z,100920.31
2023-01-02T14:18:46.789Z,100907.19
2023-01-02T14:21:20.372Z,100900.34
2023-01-02T14:24:17.631Z,100908.13
2023-01-02T14:27:10.779Z,100904.53
2023-01-02T14:29:52.882Z,100906.31
2023-01-02T14:32:37.389Z,100907.69
2023-01-02T14:35:34.335Z,100879.84
2023-01-02T14:38:13.444Z,100881.78
2023-01-02T14:40:45.438Z,100883.50
2023-01-02T14:43:32.674Z,100885.00
2023-01-02T14:46:10.977Z,100876.81
2023-01-02T14:48:47.541Z,100877.63
2023-01-02T14:51:22.155Z,100862.94
2023-01-02T14:53:56.070Z,100866.75
2023-01-02T14:56:33.367Z,100860.56
2023-01-02T14:59:03.809Z,100862.28
2023-01-02T15:01:42.862Z,100859.84
2023-01-02T15:04:23.718Z,100847.19
2023-01-02T15:07:01.252Z,100841.63
2023-01-02T15:09:41.188Z,100850.19
2023-01-02T15:12:42.227Z,100847.88
2023-01-02T15:15:13.380Z,100846.97
2023-01-02T15:17:43.834Z,100839.19
2023-01-02T15:20:19.494Z,100833.28
2023-01-02T15:23:01.689Z,100833.19
2023-01-02T15:25:39.182Z,100828.06
2023-01-02T15:28:26.544Z,100829.16
2023-01-02T15:31:02.986Z,100828.63
2023-01-02T15:33:34.922Z,100813.00
2023-01-02T15:36:08.926Z,100806.69
2023-01-02T15:38:44.141Z,100802.56
2023-01-02T15:41:21.727Z,100794.56
2023-01-02T15:44:16.604Z,100797.06
2023-01-02T15:46:47.058Z,100781.00
2023-01-02T15:49:22.521Z,100776.78
2023-01-02T15:51:51.667Z,100779.72
2023-01-02T15:54:20.801Z,100765.88
2023-01-02T15:56:52.830Z,100760.59
2023-01-02T15:59:29.477Z,100754.66
2023-01-02T16:01:58.350Z,100751.22
2023-01-02T16:04:31.433Z,100746.38
2023-01-02T16:07:02.376Z,100744.69
2023-01-02T16:09:32.706Z,100735.25
2023-01-02T16:12:03.833Z,100732.50
2023-01-02T16:14:35.008Z,100736.50
2023-01-02T16:17:06.662Z,100724.66
2023-01-02T16:19:40.614Z,100729.56
2023-01-02T16:22:19.671Z,100721.78
2023-01-02T16:25:06.296Z,100716.31
2023-01-02T16:27:51.301Z,100712.25
2023-01-02T16:30:37.576Z,100704.16
2023-01-02T16:33:28.143Z,100706.00
2023-01-02T16:36:07.947Z,100694.09
2023-01-02T16:38:54.665Z,100691.44
2023-01-02T16:42:19.927Z,100695.00
2023-01-02T16:44:55.644Z,100684.34
2023-01-02T16:47:26.035Z,100679.66
2023-01-02T16:49:54.845Z,100679.91
2023-01-02T16:52:26.648Z,100675.38
2023-01-02T16:54:55.384Z,100665.47
2023-01-02T16:57:25.049Z,100665.00
2023-01-02T16:59:53.729Z,100660.09
2023-01-02T17:02:28.034Z,100652.09
2023-01-02T17:04:56.944Z,100648.31
2023-01-02T17:07:27.044Z,100636.00
2023-01-02T17:09:55.682Z,100631.91
2023-01-02T17:12:24.596Z,100627.44
2023-01-02T17:14:53.205Z,100618.06
2023-01-02T17:17:21.933Z,100617.53
2023-01-02T17:19:50.635Z,100613.41
2023-01-02T17:22:19.204Z,100610.44
2023-01-02T17:24:49.186Z,100596.50
2023-01-02T17:27:18.073Z,100595.81
2023-01-02T17:29:46.602Z,100588.38
2023-01-02T17:32:15.209Z,100585.81
2023-01-02T17:34:43.692Z,100588.28
2023-01-02T17:37:12.758Z,100581.91
2023-01-02T17:39:41.461Z,100571.63
2023-01-02T17:42:11.899Z,100558.03
2023-01-02T17:44:40.606Z,100557.03
2023-01-02T17:47:57.709Z,100545.88
2023-01-02T17:49:58.363Z,100543.16
2023-01-02T17:52:26.875Z,100539.81
2023-01-02T17:54:56.965Z,100527.56
2023-01-02T17:57:27.690Z,100508.34
2023-01-02T17:59:56.931Z,100507.94
2023-01-02T18:02:26.420Z,100490.53
2023-01-02T18:04:56.386Z,100493.19
2023-01-02T18:07:25.632Z,100479.78
2023-01-02T18:10:07.576Z,100481.16
2023-01-02T18:12:38.521Z,100465.88
2023-01-02T18:15:13.985Z,100467.47
2023-01-02T18:17:42.604Z,100460.03
2023-01-02T18:20:13.647Z,100451.25
2023-01-02T18:22:48.382Z,100445.94
2023-01-02T18:25:20.899Z,100443.09
2023-01-02T18:27:51.086Z,100436.25
2023-01-02T18:30:22.349Z,100427.56
2023-01-02T18:32:54.367Z,100417.81
2023-01-02T18:38:20.636Z,100414.72
2023-01-02T18:40:49.200Z,100400.03
2023-01-02T18:43:35.969Z,100404.63
2023-01-02T18:46:14.395Z,100395.84
2023-01-02T18:48:43.062Z,100389.41
2023-01-02T18:51:18.782Z,100393.66
2023-01-02T18:53:50.083Z,100385.28
2023-01-02T18:56:21.444Z,100378.72
2023-01-02T18:59:01.211Z,100365.13
2023-01-02T19:01:31.912Z,100361.88
2023-01-02T19:04:24.435Z,100357.06
2023-01-02T19:06:57.921Z,100342.03
2023-01-02T19:09:31.502Z,100340.91
2023-01-02T19:12:20.679Z,100331.44
2023-01-02T19:14:52.762Z,100325.94
2023-01-02T19:17:25.117Z,100308.31
2023-01-02T19:19:55.605Z,100298.41
2023-01-02T19:22:25.829Z,100292.25
2023-01-02T19:24:54.576Z,100281.66
2023-01-02T19:27:28.104Z,100276.03
2023-01-02T19:29:58.209Z,100275.34
2023-01-02T19:32:29.530Z,100272.44
2023-01-02T19:35:03.222Z,100258.72
2023-01-02T19:37:43.423Z,100258.91
2023-01-02T19:40:19.308Z,100244.22
2023-01-02T19:42:49.511Z,100241.97
2023-01-02T19:45:21.091Z,100233.34
2023-01-02T19:47:50.899Z,100209.84
2023-01-02T19:50:21.476Z,100201.81
2023-01-02T19:52:51.014Z,100195.78
2023-01-02T19:55:20.279Z,100182.09
2023-01-02T19:57:49.211Z,100176.16
2023-01-02T20:00:20.624Z,100164.13
2023-01-02T20:02:51.684Z,100150.97
2023-01-02T20:05:22.625Z,100154.75
2023-01-02T20:07:52.245Z,100140.75
2023-01-02T20:10:21.088Z,100143.97
2023-01-02T20:12:50.070Z,100137.50
2023-01-02T20:15:23.897Z,100129.97
2023-01-02T20:17:53.833Z,100121.81
2023-01-02T20:20:25.461Z,100115.19
2023-01-02T20:22:58.346Z,100109.34
2023-01-02T20:25:26.911Z,100102.78
2023-01-02T20:27:56.720Z,100092.81
2023-01-02T20:30:30.776Z,100097.56
2023-01-02T20:32:59.787Z,100090.47
2023-01-02T20:35:28.322Z,100067.75
2023-01-02T20:37:57.260Z,100069.16
2023-01-02T20:40:29.085Z,100061.13
2023-01-02T20:42:57.786Z,100061.97
2023-01-02T20:45:26.883Z,100053.06
2023-01-02T20:47:56.882Z,100059.41
2023-01-02T20:50:25.380Z,100051.84
2023-01-02T20:52:57.139Z,100040.63
2023-01-02T20:55:26.426Z,100036.19
2023-01-02T20:57:56.892Z,100032.59
2023-01-02T21:00:28.817Z,100025.19
2023-01-02T21:02:59.339Z,100021.78
2023-01-02T21:05:28.140Z,100017.53
2023-01-02T21:07:56.679Z,100003.13
2023-01-02T21:10:25.522Z,100006.63
2023-01-02T21:13:10.739Z,99998.66
2023-01-02T21:15:47.096Z,99983.31
2023-01-02T21:18:19.438Z,99977.69
2023-01-02T21:20:51.214Z,99978.53
2023-01-02T21:23:21.275Z,99983.63
2023-01-02T21:25:50.409Z,99977.50
2023-01-02T21:28:23.779Z,99972.19
2023-01-02T21:30:54.006Z,99961.09
2023-01-02T21:33:26.041Z,99960.78
2023-01-02T21:35:56.796Z,99956.13
2023-01-02T21:38:26.817Z,99948.47
2023-01-02T21:41:22.735Z,99931.28
2023-01-02T21:43:51.835Z,99922.44
2023-01-02T21:46:20.742Z,99921.38
2023-01-02T21:48:51.659Z,99911.34
2023-01-02T21:51:20.272Z,99899.03
2023-01-02T21:53:48.919Z,99887.97
2023-01-02T21:56:17.775Z,99888.59
2023-01-02T21:58:46.418Z,99892.44
2023-01-02T22:01:15.163Z,99893.91
2023-01-02T22:03:43.938Z,99873.34
2023-01-02T22:06:14.993Z,99874.34
2023-01-02T22:08:44.151Z,99862.50
2023-01-02T22:11:30.194Z,99861.00
2023-01-02T22:13:58.993Z,99850.16
2023-01-02T22:16:27.892Z,99837.56
2023-01-02T22:18:56.795Z,99840.31
2023-01-02T22:21:26.902Z,99831.81
2023-01-02T22:23:55.786Z,99808.56
2023-01-02T22:26:24.705Z,99811.97
2023-01-02T22:28:53.773Z,99797.31
2023-01-02T22:31:22.566Z,99780.25
2023-01-02T22:33:51.866Z,99778.44
2023-01-02T22:36:20.765Z,99776.63
2023-01-02T22:39:18.028Z,99777.06
2023-01-02T22:41:45.114Z,99777.38
2023-01-02T22:44:17.865Z,99781.19
2023-01-02T22:46:50.270Z,99768.13
2023-01-02T22:49:22.808Z,99767.06
2023-01-02T22:52:09.105Z,99766.97
2023-01-02T22:54:39.968Z,99752.75
2023-01-02T22:57:14.448Z,99759.09
2023-01-02T22:59:44.600Z,99742.44
2023-01-02T23:02:16.893Z,99733.44
2023-01-02T23:04:45.932Z,99720.25
2023-01-02T23:07:24.343Z,99712.00
2023-01-02T23:09:54.913Z,99698.19
2023-01-02T23:12:23.450Z,99689.91
2023-01-02T23:14:52.067Z,99679.09
2023-01-02T23:17:37.697Z,99678.22
2023-01-02T23:20:07.354Z,99675.69
2023-01-02T23:22:35.861Z,99675.69
2023-01-02T23:25:07.759Z,99676.50
2023-01-02T23:27:36.689Z,99674.41
2023-01-02T23:30:06.324Z,99668.22
2023-01-02T23:32:34.853Z,99662.09
2023-01-02T23:35:03.436Z,99651.19
2023-01-02T23:37:32.190Z,99646.38
2023-01-02T23:40:00.767Z,99644.94
2023-01-02T23:42:30.921Z,99641.97
2023-01-02T23:44:59.771Z,99623.75
2023-01-02T23:47:28.535Z,99617.63
2023-01-02T23:49:57.403Z,99617.06
2023-01-02T23:52:25.977Z,99611.38
2023-01-02T23:54:54.422Z,99618.25
2023-01-02T23:57:23.031Z,99607.41
2023-01-02T23:59:52.995Z,99604.75
